»·PEaware :: N32314 KBFL-KMHV

N32314 :: KBFL-KMHV

FLIGHT INFORMATION

Flight Status: Arrived
Operator: Privately registered:
United States
More flights under this callsign
Pilot: John O. (31453)
Aircraft: CESSNA 172 SKYHAWK
(C172)
More flights by this aircraft type
Origin: KBFL Meadows
United States
Destination: KMHV Mojave
United States
More flights between these airports :: More routes between these airports
Route: +
File this flight plan on PilotEdge
Remarks:
Altitude:
(Current/Filed)
7,500ft
Speed:
(Current/Filed)
110kts
Departed: 20-Sep-20 04:49 PM
Arrived: 20-Sep-20 05:20 PM
Distance/Time
Traveled:
50nm/0:30
Distance/Time
To Go:
Arrived

Flight Plot

Page will automatically refresh every two minutes.


Map Options




Map Legend


Flown Route
Filed Route
Departure Airport
Arrival Airport
Navaid (VOR, NDB)
Fix

Horizontal Profiles

Position Reports

Time Latitude Longitude Heading Altitude Ground
Speed
20-Sep-20 16:31 35.428717 -119.045456 63 481ft 0kts
20-Sep-20 16:32 35.428717 -119.045456 63 481ft 0kts
20-Sep-20 16:33 35.428717 -119.045456 63 481ft 0kts
20-Sep-20 16:34 35.428717 -119.045456 63 481ft 0kts
20-Sep-20 16:35 35.428717 -119.045456 63 481ft 0kts
20-Sep-20 16:36 35.428717 -119.045456 63 481ft 0kts
20-Sep-20 16:37 35.428717 -119.045456 63 481ft 0kts
20-Sep-20 16:38 35.428717 -119.045456 63 481ft 0kts
20-Sep-20 16:39 35.428467 -119.045278 221 480ft 0kts
20-Sep-20 16:40 35.428467 -119.045278 221 480ft 0kts
20-Sep-20 16:41 35.428467 -119.045278 221 480ft 0kts
20-Sep-20 16:42 35.428467 -119.045278 221 480ft 0kts
20-Sep-20 16:43 35.428467 -119.045278 221 480ft 0kts
20-Sep-20 16:44 35.428095 -119.045675 226 479ft 12kts
20-Sep-20 16:46 35.425735 -119.044686 243 472ft 0kts
20-Sep-20 16:47 35.425735 -119.044686 243 472ft 0kts
20-Sep-20 16:48 35.425903 -119.046603 311 477ft 14kts
20-Sep-20 16:49 35.439139 -119.062431 312 901ft 84kts
20-Sep-20 16:50 35.448427 -119.053551 110 1524ft 99kts
20-Sep-20 16:51 35.436042 -119.027282 127 2328ft 88kts
20-Sep-20 16:52 35.422043 -119.002956 128 3004ft 87kts
20-Sep-20 16:53 35.403727 -118.982929 113 3556ft 98kts
20-Sep-20 16:54 35.390445 -118.952375 116 4072ft 105kts
20-Sep-20 16:55 35.376998 -118.919175 117 4568ft 110kts
20-Sep-20 16:56 35.363374 -118.885832 117 5066ft 109kts
20-Sep-20 16:57 35.350147 -118.853512 117 5555ft 108kts
20-Sep-20 16:58 35.336936 -118.821297 117 6049ft 106kts
20-Sep-20 16:59 35.323752 -118.789144 117 6549ft 104kts
20-Sep-20 17:00 35.310909 -118.757870 117 7048ft 101kts
20-Sep-20 17:01 35.298308 -118.727241 117 7474ft 106kts
20-Sep-20 17:01 35.286429 -118.698361 117 7497ft 115kts
20-Sep-20 17:03 35.269569 -118.657416 117 7499ft 115kts
20-Sep-20 17:04 35.255059 -118.622230 117 7499ft 116kts
20-Sep-20 17:04 35.242971 -118.592942 117 7501ft 115kts
20-Sep-20 17:05 35.228484 -118.557880 117 7500ft 115kts
20-Sep-20 17:07 35.211430 -118.516649 117 7502ft 117kts
20-Sep-20 17:07 35.199188 -118.487079 117 7502ft 116kts
20-Sep-20 17:08 35.184298 -118.451153 117 7401ft 122kts
20-Sep-20 17:10 35.166218 -118.407587 117 7145ft 122kts
20-Sep-20 17:10 35.153995 -118.378166 117 6977ft 111kts
20-Sep-20 17:11 35.140067 -118.344678 117 6785ft 110kts
20-Sep-20 17:12 35.127006 -118.313286 117 6803ft 99kts
20-Sep-20 17:13 35.112876 -118.279350 117 6317ft 120kts
20-Sep-20 17:14 35.108016 -118.242604 96 5738ft 111kts
20-Sep-20 17:15 35.096350 -118.207330 125 4717ft 114kts
20-Sep-20 17:16 35.078596 -118.178191 127 3676ft 85kts
20-Sep-20 17:17 35.067720 -118.148253 83 3444ft 101kts
20-Sep-20 17:18 35.061362 -118.125299 214 3314ft 64kts
20-Sep-20 17:19 35.059182 -118.146236 271 2751ft 31kts
20-Sep-20 17:20 35.058159 -118.149071 234 2751ft 15kts
20-Sep-20 17:21 35.057416 -118.151345 266 2755ft 0kts
20-Sep-20 17:22 35.057416 -118.151345 266 2755ft 0kts
20-Sep-20 17:23 35.057416 -118.151345 266 2755ft 0kts
20-Sep-20 17:24 35.057416 -118.151345 266 2755ft 0kts
20-Sep-20 17:25 35.057416 -118.151345 266 2755ft 0kts
20-Sep-20 17:26 35.057413 -118.151374 259 2755ft 0kts
20-Sep-20 17:27 35.057413 -118.151374 259 2755ft 0kts
20-Sep-20 17:28 35.057413 -118.151374 259 2755ft 0kts
20-Sep-20 17:29 35.057413 -118.151374 259 2755ft 0kts
20-Sep-20 17:30 35.057413 -118.151374 259 2755ft 0kts
20-Sep-20 17:31 35.057413 -118.151374 259 2755ft 0kts
20-Sep-20 17:32 35.057413 -118.151374 259 2755ft 0kts
20-Sep-20 17:33 35.057413 -118.151375 259 2755ft 0kts

Navigation Log

Ident Type
Flight plan parsing failed, navigation log unavailable